Elbella — 9HA2358 — position and weather

sailwx.info

Track history (hours):
 
Tides and Currents Weather Stations Pressure Air Temp Water Temp Dewpoint Dewpoint Depression Visibility Wind Speed Wind Dir Waves Ship Positions

Elbella

Last reported at 2017-Apr-24 06:35 UTC. Time now 2017-May-22 23:12 UTC.
Position N 22°24' E 120°08'.
Warning: this ship's position is 28 days out of date.

Length 176 m; draft 9.2 m.

Type: Ship (hazmat cat A). MMSI: 248422000.

Date/timePositionNaut miles runAvg speedWind from/ knotsBaromVisibWave heightAir tempDewpointWater temp
2017-Apr-24 06:35N 22°24' E 120°08'118.5
2017-Apr-24 06:31N 22°26' E 120°09'816.8
2017-Apr-24 06:01N 22°33' E 120°14'5 0.7
2017-Apr-23 23:27N 22°33' E 120°19'4 8.6
2017-Apr-23 23:01N 22°32' E 120°15'3 6.5
2017-Apr-23 22:30N 22°33' E 120°12'815.5
2017-Apr-23 22:00N 22°39' E 120°08'816.5
2017-Apr-23 21:30N 22°47' E 120°03'  
2017-Apr-15 17:25N 22°28' E 119°56'511.4
2017-Apr-15 17:00N 22°24' E 119°58'  
Track history (hours):
 
Tides and Currents Weather Stations Pressure Air Temp Water Temp Dewpoint Dewpoint Depression Visibility Wind Speed Wind Dir Waves Ship Positions

Elbella

Last reported at 2017-Apr-24 06:35 UTC. Time now 2017-May-22 23:12 UTC.
Position N 22°24' E 120°08'.
Warning: this ship's position is 28 days out of date.

Length 176 m; draft 9.2 m.

Type: Ship (hazmat cat A). MMSI: 248422000.

Date/timePositionNaut miles runAvg speedWind from/ knotsBaromVisibWave heightAir tempDewpointWater temp
2017-Apr-24 06:35N 22°24' E 120°08'118.5
2017-Apr-24 06:31N 22°26' E 120°09'816.8
2017-Apr-24 06:01N 22°33' E 120°14'5 0.7
2017-Apr-23 23:27N 22°33' E 120°19'4 8.6
2017-Apr-23 23:01N 22°32' E 120°15'3 6.5
2017-Apr-23 22:30N 22°33' E 120°12'815.5
2017-Apr-23 22:00N 22°39' E 120°08'816.5
2017-Apr-23 21:30N 22°47' E 120°03'  
2017-Apr-15 17:25N 22°28' E 119°56'511.4
2017-Apr-15 17:00N 22°24' E 119°58'  

Dump ship's entire track history